Chicago Bmc, Illinois
Current Conditions -  °F | °C
As of 3:51 PM on Tuesday 21 Oct 2014 (Local Time) from KORD Reporting Station
Overcast Overcast  
Wind Chill: 44°   Ceiling: 2500
Heat Index: 49°   Visibility: 10mi
Dew Point: 39°   Wind: 14mph
Humidity: 69%   Direction: 10°N
Pressure: 30.19"   Gusts: NA
Location:  42.0275°N, 87.808°W
Report Text: KORD 212051Z 01012KT 10SM OVC025 09/04 A3019 RMK AO2 SLP225 T00940039 51006
Loading
Personal Weather Stations






























Interactive Weather Map New forecast layout! Learn more

10-Day Weather Forecast

Advertisements
Track Severe Weather on mobile